sensor_id;sensor_type;location;lat;lon;timestamp;temperature;humidity
55369;DHT22;41247;49.736;8.752;2023-01-01T00:00:22;14.20;99.90
55369;DHT22;41247;49.736;8.752;2023-01-01T00:04:03;14.10;99.90
55369;DHT22;41247;49.736;8.752;2023-01-01T00:07:43;14.10;99.90
55369;DHT22;41247;49.736;8.752;2023-01-01T00:11:24;14.10;99.90
55369;DHT22;41247;49.736;8.752;2023-01-01T00:15:05;14.10;99.90
55369;DHT22;41247;49.736;8.752;2023-01-01T00:18:46;14.10;99.90
55369;DHT22;41247;49.736;8.752;2023-01-01T00:22:26;14.10;99.90
55369;DHT22;41247;49.736;8.752;2023-01-01T00:26:12;14.00;99.90
55369;DHT22;41247;49.736;8.752;2023-01-01T00:29:54;13.80;99.90
55369;DHT22;41247;49.736;8.752;2023-01-01T00:33:35;13.70;99.90
55369;DHT22;41247;49.736;8.752;2023-01-01T00:37:16;13.70;99.90
55369;DHT22;41247;49.736;8.752;2023-01-01T00:40:56;13.70;99.90
55369;DHT22;41247;49.736;8.752;2023-01-01T00:44:37;13.70;99.90
55369;DHT22;41247;49.736;8.752;2023-01-01T00:48:18;13.70;99.90
55369;DHT22;41247;49.736;8.752;2023-01-01T00:51:59;13.70;99.90
55369;DHT22;41247;49.736;8.752;2023-01-01T00:55:41;13.60;99.90
55369;DHT22;41247;49.736;8.752;2023-01-01T00:59:22;13.70;99.90
55369;DHT22;41247;49.736;8.752;2023-01-01T01:03:03;13.70;99.90
55369;DHT22;41247;49.736;8.752;2023-01-01T01:06:43;13.70;99.90
55369;DHT22;41247;49.736;8.752;2023-01-01T01:10:24;13.70;99.90
55369;DHT22;41247;49.736;8.752;2023-01-01T01:14:05;13.60;99.90
55369;DHT22;41247;49.736;8.752;2023-01-01T01:17:46;13.60;99.90
55369;DHT22;41247;49.736;8.752;2023-01-01T01:21:28;13.50;99.90
55369;DHT22;41247;49.736;8.752;2023-01-01T01:25:10;13.50;99.90
55369;DHT22;41247;49.736;8.752;2023-01-01T01:28:51;13.40;99.90
55369;DHT22;41247;49.736;8.752;2023-01-01T01:32:32;13.40;99.90
55369;DHT22;41247;49.736;8.752;2023-01-01T01:36:14;13.40;99.90
55369;DHT22;41247;49.736;8.752;2023-01-01T01:39:56;13.30;99.90
55369;DHT22;41247;49.736;8.752;2023-01-01T01:51:23;13.30;99.90
55369;DHT22;41247;49.736;8.752;2023-01-01T01:55:08;13.20;99.90
55369;DHT22;41247;49.736;8.752;2023-01-01T01:58:49;13.10;99.90
55369;DHT22;41247;49.736;8.752;2023-01-01T02:02:52;13.10;99.90
55369;DHT22;41247;49.736;8.752;2023-01-01T02:06:37;13.10;99.90
55369;DHT22;41247;49.736;8.752;2023-01-01T02:10:18;13.10;99.90
55369;DHT22;41247;49.736;8.752;2023-01-01T02:14:00;13.10;99.90
55369;DHT22;41247;49.736;8.752;2023-01-01T02:17:48;13.10;99.90
55369;DHT22;41247;49.736;8.752;2023-01-01T02:21:55;13.20;99.90
55369;DHT22;41247;49.736;8.752;2023-01-01T02:30:07;13.30;99.90
55369;DHT22;41247;49.736;8.752;2023-01-01T02:33:49;13.30;99.90
55369;DHT22;41247;49.736;8.752;2023-01-01T02:37:31;13.30;99.90
55369;DHT22;41247;49.736;8.752;2023-01-01T02:41:22;13.20;99.90
55369;DHT22;41247;49.736;8.752;2023-01-01T02:45:06;13.30;99.90
55369;DHT22;41247;49.736;8.752;2023-01-01T02:48:51;13.30;99.90
55369;DHT22;41247;49.736;8.752;2023-01-01T02:52:52;13.30;99.90
55369;DHT22;41247;49.736;8.752;2023-01-01T03:00:36;13.20;99.90
55369;DHT22;41247;49.736;8.752;2023-01-01T03:04:21;13.30;99.90
55369;DHT22;41247;49.736;8.752;2023-01-01T03:08:16;13.30;99.90
55369;DHT22;41247;49.736;8.752;2023-01-01T03:12:23;13.30;99.90
55369;DHT22;41247;49.736;8.752;2023-01-01T03:16:27;13.30;99.90
55369;DHT22;41247;49.736;8.752;2023-01-01T03:20:18;13.20;99.90
55369;DHT22;41247;49.736;8.752;2023-01-01T03:24:02;13.20;99.90
55369;DHT22;41247;49.736;8.752;2023-01-01T03:27:47;13.20;99.90
55369;DHT22;41247;49.736;8.752;2023-01-01T03:31:30;13.10;99.90
55369;DHT22;41247;49.736;8.752;2023-01-01T03:35:12;13.10;99.90
55369;DHT22;41247;49.736;8.752;2023-01-01T03:39:03;13.10;99.90
55369;DHT22;41247;49.736;8.752;2023-01-01T03:42:55;13.00;99.90
55369;DHT22;41247;49.736;8.752;2023-01-01T03:46:41;13.00;99.90
55369;DHT22;41247;49.736;8.752;2023-01-01T03:50:29;12.90;99.90
55369;DHT22;41247;49.736;8.752;2023-01-01T03:58:40;12.90;99.90
55369;DHT22;41247;49.736;8.752;2023-01-01T04:02:29;12.80;99.90
55369;DHT22;41247;49.736;8.752;2023-01-01T04:06:14;12.70;99.90
55369;DHT22;41247;49.736;8.752;2023-01-01T04:09:56;12.70;99.90
55369;DHT22;41247;49.736;8.752;2023-01-01T04:13:46;12.70;99.90
55369;DHT22;41247;49.736;8.752;2023-01-01T04:17:27;12.80;99.90
55369;DHT22;41247;49.736;8.752;2023-01-01T04:21:08;12.80;99.90
55369;DHT22;41247;49.736;8.752;2023-01-01T04:24:48;12.80;99.90
55369;DHT22;41247;49.736;8.752;2023-01-01T04:28:29;12.80;99.90
55369;DHT22;41247;49.736;8.752;2023-01-01T04:32:10;12.80;99.90
55369;DHT22;41247;49.736;8.752;2023-01-01T04:35:50;12.70;99.90
55369;DHT22;41247;49.736;8.752;2023-01-01T04:39:31;12.70;99.90
55369;DHT22;41247;49.736;8.752;2023-01-01T04:43:11;12.70;99.90
55369;DHT22;41247;49.736;8.752;2023-01-01T04:46:52;12.70;99.90
55369;DHT22;41247;49.736;8.752;2023-01-01T04:50:32;12.70;99.90
55369;DHT22;41247;49.736;8.752;2023-01-01T04:54:13;12.80;99.90
55369;DHT22;41247;49.736;8.752;2023-01-01T04:57:54;12.80;99.90
55369;DHT22;41247;49.736;8.752;2023-01-01T05:01:34;12.80;99.90
55369;DHT22;41247;49.736;8.752;2023-01-01T05:05:15;12.80;99.90
55369;DHT22;41247;49.736;8.752;2023-01-01T05:08:56;12.70;99.90
55369;DHT22;41247;49.736;8.752;2023-01-01T05:12:37;12.70;99.90
55369;DHT22;41247;49.736;8.752;2023-01-01T05:16:22;12.80;99.90
55369;DHT22;41247;49.736;8.752;2023-01-01T05:20:04;12.80;99.90
55369;DHT22;41247;49.736;8.752;2023-01-01T05:23:45;12.80;99.90
55369;DHT22;41247;49.736;8.752;2023-01-01T05:27:26;12.90;99.90
55369;DHT22;41247;49.736;8.752;2023-01-01T05:31:13;12.90;99.90
55369;DHT22;41247;49.736;8.752;2023-01-01T05:34:54;13.00;99.90
55369;DHT22;41247;49.736;8.752;2023-01-01T05:38:36;13.00;99.90
55369;DHT22;41247;49.736;8.752;2023-01-01T05:42:16;13.00;99.90
55369;DHT22;41247;49.736;8.752;2023-01-01T05:46:05;13.00;99.90
55369;DHT22;41247;49.736;8.752;2023-01-01T05:49:47;13.10;99.90
55369;DHT22;41247;49.736;8.752;2023-01-01T05:53:28;13.10;99.90
55369;DHT22;41247;49.736;8.752;2023-01-01T05:57:09;13.10;99.90
55369;DHT22;41247;49.736;8.752;2023-01-01T06:00:50;13.10;99.90
55369;DHT22;41247;49.736;8.752;2023-01-01T06:04:30;13.00;99.90
55369;DHT22;41247;49.736;8.752;2023-01-01T06:08:11;12.90;99.90
55369;DHT22;41247;49.736;8.752;2023-01-01T06:11:52;12.90;99.90
55369;DHT22;41247;49.736;8.752;2023-01-01T06:15:36;12.80;99.90
55369;DHT22;41247;49.736;8.752;2023-01-01T06:19:16;12.80;99.90
55369;DHT22;41247;49.736;8.752;2023-01-01T06:22:57;12.80;99.90
55369;DHT22;41247;49.736;8.752;2023-01-01T06:26:38;12.80;99.90
55369;DHT22;41247;49.736;8.752;2023-01-01T06:30:18;12.70;99.90
55369;DHT22;41247;49.736;8.752;2023-01-01T06:33:59;12.70;99.90
55369;DHT22;41247;49.736;8.752;2023-01-01T06:37:39;12.60;99.90
55369;DHT22;41247;49.736;8.752;2023-01-01T06:41:22;12.60;99.90
55369;DHT22;41247;49.736;8.752;2023-01-01T06:45:04;12.50;99.90
55369;DHT22;41247;49.736;8.752;2023-01-01T06:48:47;12.40;99.90
55369;DHT22;41247;49.736;8.752;2023-01-01T06:52:28;12.40;99.90
55369;DHT22;41247;49.736;8.752;2023-01-01T06:56:09;12.30;99.90
55369;DHT22;41247;49.736;8.752;2023-01-01T06:59:50;12.30;99.90
55369;DHT22;41247;49.736;8.752;2023-01-01T07:03:31;12.40;99.90
55369;DHT22;41247;49.736;8.752;2023-01-01T07:07:11;12.40;99.90
55369;DHT22;41247;49.736;8.752;2023-01-01T07:10:52;12.30;99.90
55369;DHT22;41247;49.736;8.752;2023-01-01T07:14:33;12.20;99.90
55369;DHT22;41247;49.736;8.752;2023-01-01T07:18:13;12.00;99.90
55369;DHT22;41247;49.736;8.752;2023-01-01T07:21:54;12.10;99.90
55369;DHT22;41247;49.736;8.752;2023-01-01T07:25:35;12.10;99.90
55369;DHT22;41247;49.736;8.752;2023-01-01T07:29:16;12.10;99.90
55369;DHT22;41247;49.736;8.752;2023-01-01T07:32:56;12.10;99.90
55369;DHT22;41247;49.736;8.752;2023-01-01T07:36:37;12.10;99.90
55369;DHT22;41247;49.736;8.752;2023-01-01T07:40:18;12.10;99.90
55369;DHT22;41247;49.736;8.752;2023-01-01T07:43:58;12.10;99.90
55369;DHT22;41247;49.736;8.752;2023-01-01T07:47:39;12.10;99.90
55369;DHT22;41247;49.736;8.752;2023-01-01T07:51:19;12.20;99.90
55369;DHT22;41247;49.736;8.752;2023-01-01T07:55:00;12.40;99.90
55369;DHT22;41247;49.736;8.752;2023-01-01T07:58:41;12.50;99.90
55369;DHT22;41247;49.736;8.752;2023-01-01T08:02:21;12.60;99.90
55369;DHT22;41247;49.736;8.752;2023-01-01T08:06:07;12.70;99.90
55369;DHT22;41247;49.736;8.752;2023-01-01T08:09:51;12.80;99.90
55369;DHT22;41247;49.736;8.752;2023-01-01T08:13:32;12.80;99.90
55369;DHT22;41247;49.736;8.752;2023-01-01T08:17:13;12.80;99.90
55369;DHT22;41247;49.736;8.752;2023-01-01T08:20:53;12.80;99.90
55369;DHT22;41247;49.736;8.752;2023-01-01T08:24:34;12.80;99.90
55369;DHT22;41247;49.736;8.752;2023-01-01T08:28:14;12.80;99.90
55369;DHT22;41247;49.736;8.752;2023-01-01T08:31:55;12.80;99.90
55369;DHT22;41247;49.736;8.752;2023-01-01T08:35:36;12.80;99.90
55369;DHT22;41247;49.736;8.752;2023-01-01T08:39:20;12.70;99.90
55369;DHT22;41247;49.736;8.752;2023-01-01T08:43:00;12.70;99.90
55369;DHT22;41247;49.736;8.752;2023-01-01T08:46:41;12.60;99.90
55369;DHT22;41247;49.736;8.752;2023-01-01T08:50:21;12.60;99.90
55369;DHT22;41247;49.736;8.752;2023-01-01T08:54:02;12.70;99.90
55369;DHT22;41247;49.736;8.752;2023-01-01T08:57:43;12.70;99.90
55369;DHT22;41247;49.736;8.752;2023-01-01T09:01:23;12.80;99.90
55369;DHT22;41247;49.736;8.752;2023-01-01T09:05:04;12.90;99.90
55369;DHT22;41247;49.736;8.752;2023-01-01T09:08:45;13.00;99.90
55369;DHT22;41247;49.736;8.752;2023-01-01T09:12:26;13.00;99.90
55369;DHT22;41247;49.736;8.752;2023-01-01T09:16:07;13.10;99.90
55369;DHT22;41247;49.736;8.752;2023-01-01T09:19:47;13.20;99.90
55369;DHT22;41247;49.736;8.752;2023-01-01T09:23:28;13.30;99.90
55369;DHT22;41247;49.736;8.752;2023-01-01T09:27:09;13.50;99.90
55369;DHT22;41247;49.736;8.752;2023-01-01T09:30:49;13.50;99.90
55369;DHT22;41247;49.736;8.752;2023-01-01T09:34:30;13.60;99.90
55369;DHT22;41247;49.736;8.752;2023-01-01T09:38:10;13.60;99.90
55369;DHT22;41247;49.736;8.752;2023-01-01T09:42:17;13.70;99.90
55369;DHT22;41247;49.736;8.752;2023-01-01T09:46:22;13.70;99.90
55369;DHT22;41247;49.736;8.752;2023-01-01T09:50:09;13.80;99.90
55369;DHT22;41247;49.736;8.752;2023-01-01T09:54:00;13.90;99.90
55369;DHT22;41247;49.736;8.752;2023-01-01T09:57:45;13.90;99.90
55369;DHT22;41247;49.736;8.752;2023-01-01T10:01:47;13.90;99.90
55369;DHT22;41247;49.736;8.752;2023-01-01T10:06:01;13.90;99.90
55369;DHT22;41247;49.736;8.752;2023-01-01T10:14:00;13.90;99.90
55369;DHT22;41247;49.736;8.752;2023-01-01T10:17:56;13.90;99.90
55369;DHT22;41247;49.736;8.752;2023-01-01T10:21:39;14.00;99.90
55369;DHT22;41247;49.736;8.752;2023-01-01T10:25:24;14.00;99.90
55369;DHT22;41247;49.736;8.752;2023-01-01T10:29:14;14.00;99.90
55369;DHT22;41247;49.736;8.752;2023-01-01T10:32:59;14.00;99.90
55369;DHT22;41247;49.736;8.752;2023-01-01T10:36:39;14.00;99.90
55369;DHT22;41247;49.736;8.752;2023-01-01T10:40:22;14.10;99.90
55369;DHT22;41247;49.736;8.752;2023-01-01T10:44:05;14.10;99.90
55369;DHT22;41247;49.736;8.752;2023-01-01T10:48:15;14.20;99.90
55369;DHT22;41247;49.736;8.752;2023-01-01T10:51:57;14.30;99.90
55369;DHT22;41247;49.736;8.752;2023-01-01T10:55:38;14.40;99.90
55369;DHT22;41247;49.736;8.752;2023-01-01T10:59:35;14.40;99.90
55369;DHT22;41247;49.736;8.752;2023-01-01T11:03:19;14.50;99.90
55369;DHT22;41247;49.736;8.752;2023-01-01T11:07:05;14.50;99.90
55369;DHT22;41247;49.736;8.752;2023-01-01T11:10:50;14.50;99.90
55369;DHT22;41247;49.736;8.752;2023-01-01T11:14:37;14.60;99.90
55369;DHT22;41247;49.736;8.752;2023-01-01T11:18:25;14.60;99.90
55369;DHT22;41247;49.736;8.752;2023-01-01T11:22:42;14.70;99.90
55369;DHT22;41247;49.736;8.752;2023-01-01T11:26:24;14.60;99.90
55369;DHT22;41247;49.736;8.752;2023-01-01T11:30:26;14.60;99.90
55369;DHT22;41247;49.736;8.752;2023-01-01T11:34:38;14.60;99.90
55369;DHT22;41247;49.736;8.752;2023-01-01T11:38:22;14.60;99.90
55369;DHT22;41247;49.736;8.752;2023-01-01T11:42:04;14.50;99.90
55369;DHT22;41247;49.736;8.752;2023-01-01T11:45:45;14.40;99.90
55369;DHT22;41247;49.736;8.752;2023-01-01T11:49:27;14.30;99.90
55369;DHT22;41247;49.736;8.752;2023-01-01T11:57:11;14.30;99.90
55369;DHT22;41247;49.736;8.752;2023-01-01T12:01:03;14.30;99.90
55369;DHT22;41247;49.736;8.752;2023-01-01T12:05:19;14.30;99.90
55369;DHT22;41247;49.736;8.752;2023-01-01T12:13:28;14.40;99.90
55369;DHT22;41247;49.736;8.752;2023-01-01T12:17:22;14.40;99.90
55369;DHT22;41247;49.736;8.752;2023-01-01T12:21:13;14.40;99.90
55369;DHT22;41247;49.736;8.752;2023-01-01T12:24:59;14.40;99.90
55369;DHT22;41247;49.736;8.752;2023-01-01T12:33:27;14.30;99.90
55369;DHT22;41247;49.736;8.752;2023-01-01T12:45:16;14.10;99.90
55369;DHT22;41247;49.736;8.752;2023-01-01T12:49:18;14.10;99.90
55369;DHT22;41247;49.736;8.752;2023-01-01T12:53:25;14.10;99.90
55369;DHT22;41247;49.736;8.752;2023-01-01T13:01:30;14.00;99.90
55369;DHT22;41247;49.736;8.752;2023-01-01T13:05:19;14.00;99.90
55369;DHT22;41247;49.736;8.752;2023-01-01T13:09:18;13.90;99.90
55369;DHT22;41247;49.736;8.752;2023-01-01T13:13:01;13.90;99.90
55369;DHT22;41247;49.736;8.752;2023-01-01T13:16:56;13.90;99.90
55369;DHT22;41247;49.736;8.752;2023-01-01T13:24:38;13.90;99.90
55369;DHT22;41247;49.736;8.752;2023-01-01T13:28:18;13.90;99.90
55369;DHT22;41247;49.736;8.752;2023-01-01T13:32:01;13.90;99.90
55369;DHT22;41247;49.736;8.752;2023-01-01T13:35:43;13.90;99.90
55369;DHT22;41247;49.736;8.752;2023-01-01T13:39:51;13.90;99.90
55369;DHT22;41247;49.736;8.752;2023-01-01T13:43:31;13.90;99.90
55369;DHT22;41247;49.736;8.752;2023-01-01T13:47:36;13.90;99.90
55369;DHT22;41247;49.736;8.752;2023-01-01T13:55:56;13.90;99.90
55369;DHT22;41247;49.736;8.752;2023-01-01T14:00:22;13.90;99.90
55369;DHT22;41247;49.736;8.752;2023-01-01T14:04:06;13.90;99.90
55369;DHT22;41247;49.736;8.752;2023-01-01T14:07:53;13.90;99.90
55369;DHT22;41247;49.736;8.752;2023-01-01T14:11:34;13.90;99.90
55369;DHT22;41247;49.736;8.752;2023-01-01T14:15:28;13.80;99.90
55369;DHT22;41247;49.736;8.752;2023-01-01T14:19:14;13.80;99.90
55369;DHT22;41247;49.736;8.752;2023-01-01T14:22:55;13.80;99.90
55369;DHT22;41247;49.736;8.752;2023-01-01T14:26:37;13.80;99.90
55369;DHT22;41247;49.736;8.752;2023-01-01T14:30:18;13.80;99.90
55369;DHT22;41247;49.736;8.752;2023-01-01T14:33:58;13.80;99.90
55369;DHT22;41247;49.736;8.752;2023-01-01T14:37:39;13.80;99.90
55369;DHT22;41247;49.736;8.752;2023-01-01T14:41:23;13.80;99.90
55369;DHT22;41247;49.736;8.752;2023-01-01T14:45:13;13.80;99.90
55369;DHT22;41247;49.736;8.752;2023-01-01T14:48:57;13.80;99.90
55369;DHT22;41247;49.736;8.752;2023-01-01T14:52:40;13.80;99.90
55369;DHT22;41247;49.736;8.752;2023-01-01T14:56:26;13.80;99.90
55369;DHT22;41247;49.736;8.752;2023-01-01T15:00:24;13.70;99.90
55369;DHT22;41247;49.736;8.752;2023-01-01T15:04:19;13.70;99.90
55369;DHT22;41247;49.736;8.752;2023-01-01T15:08:16;13.60;99.90
55369;DHT22;41247;49.736;8.752;2023-01-01T15:11:58;13.50;99.90
55369;DHT22;41247;49.736;8.752;2023-01-01T15:15:42;13.50;99.90
55369;DHT22;41247;49.736;8.752;2023-01-01T15:19:23;13.50;99.90
55369;DHT22;41247;49.736;8.752;2023-01-01T15:23:04;13.40;99.90
55369;DHT22;41247;49.736;8.752;2023-01-01T15:27:02;13.40;99.90
55369;DHT22;41247;49.736;8.752;2023-01-01T15:30:44;13.30;99.90
55369;DHT22;41247;49.736;8.752;2023-01-01T15:34:34;13.30;99.90
55369;DHT22;41247;49.736;8.752;2023-01-01T15:38:26;13.20;99.90
55369;DHT22;41247;49.736;8.752;2023-01-01T15:42:36;13.20;99.90
55369;DHT22;41247;49.736;8.752;2023-01-01T15:46:20;13.20;99.90
55369;DHT22;41247;49.736;8.752;2023-01-01T15:50:09;13.10;99.90
55369;DHT22;41247;49.736;8.752;2023-01-01T15:53:54;13.20;99.90
55369;DHT22;41247;49.736;8.752;2023-01-01T15:57:36;13.20;99.90
55369;DHT22;41247;49.736;8.752;2023-01-01T16:01:28;13.20;99.90
55369;DHT22;41247;49.736;8.752;2023-01-01T16:05:14;13.30;99.90
55369;DHT22;41247;49.736;8.752;2023-01-01T16:08:56;13.30;99.90
55369;DHT22;41247;49.736;8.752;2023-01-01T16:12:36;13.30;99.90
55369;DHT22;41247;49.736;8.752;2023-01-01T16:16:28;13.30;99.90
55369;DHT22;41247;49.736;8.752;2023-01-01T16:20:16;13.30;99.90
55369;DHT22;41247;49.736;8.752;2023-01-01T16:23:58;13.30;99.90
55369;DHT22;41247;49.736;8.752;2023-01-01T16:27:39;13.50;99.90
55369;DHT22;41247;49.736;8.752;2023-01-01T16:31:24;13.60;99.90
55369;DHT22;41247;49.736;8.752;2023-01-01T16:35:11;13.60;99.90
55369;DHT22;41247;49.736;8.752;2023-01-01T16:38:52;13.60;99.90
55369;DHT22;41247;49.736;8.752;2023-01-01T16:42:33;13.70;99.90
55369;DHT22;41247;49.736;8.752;2023-01-01T16:46:13;13.60;99.90
55369;DHT22;41247;49.736;8.752;2023-01-01T16:49:54;13.70;99.90
55369;DHT22;41247;49.736;8.752;2023-01-01T16:53:35;13.80;99.90
55369;DHT22;41247;49.736;8.752;2023-01-01T16:57:16;13.80;99.90
55369;DHT22;41247;49.736;8.752;2023-01-01T17:00:59;13.90;99.90
55369;DHT22;41247;49.736;8.752;2023-01-01T17:04:40;13.90;99.90
55369;DHT22;41247;49.736;8.752;2023-01-01T17:08:20;13.90;99.90
55369;DHT22;41247;49.736;8.752;2023-01-01T17:12:01;13.90;99.90
55369;DHT22;41247;49.736;8.752;2023-01-01T17:15:42;13.90;99.90
55369;DHT22;41247;49.736;8.752;2023-01-01T17:19:22;13.90;99.90
55369;DHT22;41247;49.736;8.752;2023-01-01T17:23:03;13.80;99.90
55369;DHT22;41247;49.736;8.752;2023-01-01T17:26:44;13.70;99.90
55369;DHT22;41247;49.736;8.752;2023-01-01T17:30:25;13.60;99.90
55369;DHT22;41247;49.736;8.752;2023-01-01T17:34:06;13.50;99.90
55369;DHT22;41247;49.736;8.752;2023-01-01T17:37:46;13.40;99.90
55369;DHT22;41247;49.736;8.752;2023-01-01T17:41:27;13.30;99.90
55369;DHT22;41247;49.736;8.752;2023-01-01T17:45:08;13.30;99.90
55369;DHT22;41247;49.736;8.752;2023-01-01T17:48:49;13.30;99.90
55369;DHT22;41247;49.736;8.752;2023-01-01T17:52:30;13.30;99.90
55369;DHT22;41247;49.736;8.752;2023-01-01T17:56:13;13.30;99.90
55369;DHT22;41247;49.736;8.752;2023-01-01T17:59:55;13.40;99.90
55369;DHT22;41247;49.736;8.752;2023-01-01T18:03:36;13.50;99.90
55369;DHT22;41247;49.736;8.752;2023-01-01T18:07:17;13.50;99.90
55369;DHT22;41247;49.736;8.752;2023-01-01T18:10:59;13.60;99.90
55369;DHT22;41247;49.736;8.752;2023-01-01T18:14:40;13.70;99.90
55369;DHT22;41247;49.736;8.752;2023-01-01T18:18:20;13.80;99.90
55369;DHT22;41247;49.736;8.752;2023-01-01T18:22:01;13.80;99.90
55369;DHT22;41247;49.736;8.752;2023-01-01T18:25:41;13.90;99.90
55369;DHT22;41247;49.736;8.752;2023-01-01T18:29:22;13.80;99.90
55369;DHT22;41247;49.736;8.752;2023-01-01T18:33:03;13.90;99.90
55369;DHT22;41247;49.736;8.752;2023-01-01T18:36:43;14.00;99.90
55369;DHT22;41247;49.736;8.752;2023-01-01T18:40:24;14.00;99.90
55369;DHT22;41247;49.736;8.752;2023-01-01T18:44:20;14.00;99.90
55369;DHT22;41247;49.736;8.752;2023-01-01T18:48:09;14.00;99.90
55369;DHT22;41247;49.736;8.752;2023-01-01T18:51:57;14.00;99.90
55369;DHT22;41247;49.736;8.752;2023-01-01T18:55:45;14.10;99.90
55369;DHT22;41247;49.736;8.752;2023-01-01T18:59:29;14.20;99.90
55369;DHT22;41247;49.736;8.752;2023-01-01T19:03:13;14.20;99.90
55369;DHT22;41247;49.736;8.752;2023-01-01T19:06:55;14.20;99.90
55369;DHT22;41247;49.736;8.752;2023-01-01T19:14:29;14.10;99.90
55369;DHT22;41247;49.736;8.752;2023-01-01T19:18:19;14.10;99.90
55369;DHT22;41247;49.736;8.752;2023-01-01T19:22:13;14.10;99.90
55369;DHT22;41247;49.736;8.752;2023-01-01T19:25:56;14.10;99.90
55369;DHT22;41247;49.736;8.752;2023-01-01T19:29:41;14.10;99.90
55369;DHT22;41247;49.736;8.752;2023-01-01T19:33:23;14.10;99.90
55369;DHT22;41247;49.736;8.752;2023-01-01T19:37:04;14.10;99.90
55369;DHT22;41247;49.736;8.752;2023-01-01T19:40:45;14.20;99.90
55369;DHT22;41247;49.736;8.752;2023-01-01T19:44:26;14.20;99.90
55369;DHT22;41247;49.736;8.752;2023-01-01T19:48:06;14.10;99.90
55369;DHT22;41247;49.736;8.752;2023-01-01T19:51:47;14.10;99.90
55369;DHT22;41247;49.736;8.752;2023-01-01T19:55:28;14.10;99.90
55369;DHT22;41247;49.736;8.752;2023-01-01T19:59:08;14.00;99.90
55369;DHT22;41247;49.736;8.752;2023-01-01T20:02:49;14.00;99.90
55369;DHT22;41247;49.736;8.752;2023-01-01T20:06:30;13.90;99.90
55369;DHT22;41247;49.736;8.752;2023-01-01T20:10:10;13.90;99.90
55369;DHT22;41247;49.736;8.752;2023-01-01T20:13:51;14.00;99.90
55369;DHT22;41247;49.736;8.752;2023-01-01T20:17:31;14.10;99.90
55369;DHT22;41247;49.736;8.752;2023-01-01T20:21:12;14.20;99.90
55369;DHT22;41247;49.736;8.752;2023-01-01T20:24:52;14.20;99.90
55369;DHT22;41247;49.736;8.752;2023-01-01T20:28:33;14.20;99.90
55369;DHT22;41247;49.736;8.752;2023-01-01T20:32:15;14.10;99.90
55369;DHT22;41247;49.736;8.752;2023-01-01T20:35:55;14.10;99.90
55369;DHT22;41247;49.736;8.752;2023-01-01T20:39:36;14.00;99.90
55369;DHT22;41247;49.736;8.752;2023-01-01T20:43:17;14.00;99.90
55369;DHT22;41247;49.736;8.752;2023-01-01T20:46:57;14.00;99.90
55369;DHT22;41247;49.736;8.752;2023-01-01T20:50:38;14.00;99.90
55369;DHT22;41247;49.736;8.752;2023-01-01T20:54:20;14.00;99.90
55369;DHT22;41247;49.736;8.752;2023-01-01T20:58:01;13.90;99.90
55369;DHT22;41247;49.736;8.752;2023-01-01T21:01:42;13.90;99.90
55369;DHT22;41247;49.736;8.752;2023-01-01T21:05:23;13.90;99.90
55369;DHT22;41247;49.736;8.752;2023-01-01T21:09:03;14.00;99.90
55369;DHT22;41247;49.736;8.752;2023-01-01T21:12:44;14.00;99.90
55369;DHT22;41247;49.736;8.752;2023-01-01T21:16:27;14.00;99.90
55369;DHT22;41247;49.736;8.752;2023-01-01T21:20:11;14.00;99.90
55369;DHT22;41247;49.736;8.752;2023-01-01T21:28:13;14.10;99.90
55369;DHT22;41247;49.736;8.752;2023-01-01T21:31:59;14.10;99.90
55369;DHT22;41247;49.736;8.752;2023-01-01T21:36:01;14.10;99.90
55369;DHT22;41247;49.736;8.752;2023-01-01T21:39:46;14.20;99.90
55369;DHT22;41247;49.736;8.752;2023-01-01T21:43:37;14.30;99.90
55369;DHT22;41247;49.736;8.752;2023-01-01T21:47:23;14.30;99.90
55369;DHT22;41247;49.736;8.752;2023-01-01T21:51:32;14.40;99.90
55369;DHT22;41247;49.736;8.752;2023-01-01T21:55:21;14.50;99.90
55369;DHT22;41247;49.736;8.752;2023-01-01T21:59:17;14.50;99.90
55369;DHT22;41247;49.736;8.752;2023-01-01T22:03:01;14.60;99.90
55369;DHT22;41247;49.736;8.752;2023-01-01T22:06:59;14.80;99.90
55369;DHT22;41247;49.736;8.752;2023-01-01T22:10:41;14.90;99.90
55369;DHT22;41247;49.736;8.752;2023-01-01T22:14:25;14.90;99.90
55369;DHT22;41247;49.736;8.752;2023-01-01T22:18:17;15.00;99.90
55369;DHT22;41247;49.736;8.752;2023-01-01T22:22:11;15.10;99.90
55369;DHT22;41247;49.736;8.752;2023-01-01T22:25:53;15.00;99.90
55369;DHT22;41247;49.736;8.752;2023-01-01T22:29:34;15.00;99.90
55369;DHT22;41247;49.736;8.752;2023-01-01T22:33:21;15.10;99.90
55369;DHT22;41247;49.736;8.752;2023-01-01T22:37:21;15.10;99.90
55369;DHT22;41247;49.736;8.752;2023-01-01T22:41:07;15.10;99.90
55369;DHT22;41247;49.736;8.752;2023-01-01T22:44:56;15.10;99.90
55369;DHT22;41247;49.736;8.752;2023-01-01T22:48:38;15.30;99.90
55369;DHT22;41247;49.736;8.752;2023-01-01T22:52:18;15.30;99.90
55369;DHT22;41247;49.736;8.752;2023-01-01T22:55:59;15.20;99.90
55369;DHT22;41247;49.736;8.752;2023-01-01T22:59:40;15.30;99.90
55369;DHT22;41247;49.736;8.752;2023-01-01T23:03:20;15.20;99.90
55369;DHT22;41247;49.736;8.752;2023-01-01T23:07:02;15.20;99.90
55369;DHT22;41247;49.736;8.752;2023-01-01T23:10:43;15.30;99.90
55369;DHT22;41247;49.736;8.752;2023-01-01T23:14:24;15.30;99.90
55369;DHT22;41247;49.736;8.752;2023-01-01T23:18:05;15.40;99.90
55369;DHT22;41247;49.736;8.752;2023-01-01T23:21:45;15.40;99.90
55369;DHT22;41247;49.736;8.752;2023-01-01T23:25:26;15.40;99.90
55369;DHT22;41247;49.736;8.752;2023-01-01T23:29:09;15.30;99.90
55369;DHT22;41247;49.736;8.752;2023-01-01T23:32:50;15.20;99.90
55369;DHT22;41247;49.736;8.752;2023-01-01T23:36:31;15.20;99.90
55369;DHT22;41247;49.736;8.752;2023-01-01T23:40:12;15.10;99.90
55369;DHT22;41247;49.736;8.752;2023-01-01T23:43:52;15.00;99.90
55369;DHT22;41247;49.736;8.752;2023-01-01T23:47:33;15.00;99.90
55369;DHT22;41247;49.736;8.752;2023-01-01T23:51:15;15.00;99.90
55369;DHT22;41247;49.736;8.752;2023-01-01T23:54:56;15.10;99.90
55369;DHT22;41247;49.736;8.752;2023-01-01T23:58:37;15.00;99.90
